createdAt,value
2017-04-20T00:00:42.181Z,0
2017-04-20T00:01:42.193Z,0
2017-04-20T00:02:42.865Z,0
2017-04-20T00:03:42.814Z,0
2017-04-20T00:04:42.602Z,0
2017-04-20T00:05:42.628Z,0
2017-04-20T00:06:42.653Z,0
2017-04-20T00:07:42.682Z,0
2017-04-20T00:08:42.395Z,0
2017-04-20T00:09:43.291Z,0
2017-04-20T00:10:42.772Z,0
2017-04-20T00:11:43.103Z,0
2017-04-20T00:12:43.134Z,0
2017-04-20T00:13:43.153Z,0
2017-04-20T00:14:43.230Z,0
2017-04-20T00:15:42.596Z,0
2017-04-20T00:16:42.916Z,0
2017-04-20T00:17:43.265Z,0
2017-04-20T00:18:42.978Z,0
2017-04-20T00:19:43.560Z,0
2017-04-20T00:20:43.023Z,0
2017-04-20T00:21:43.365Z,0
2017-04-20T00:22:43.380Z,0
2017-04-20T00:23:42.794Z,0
2017-04-20T00:24:43.347Z,0
2017-04-20T00:25:43.459Z,0
2017-04-20T00:26:43.181Z,0
2017-04-20T00:27:43.204Z,0
2017-04-20T00:28:43.232Z,0
2017-04-20T00:29:43.818Z,0
2017-04-20T00:30:43.586Z,0
2017-04-20T00:31:43.299Z,0
2017-04-20T00:32:43.020Z,0
2017-04-20T00:33:43.681Z,0
2017-04-20T00:34:43.953Z,0
2017-04-20T00:35:43.095Z,0
2017-04-20T00:36:43.751Z,0
2017-04-20T00:37:43.464Z,0
2017-04-20T00:38:43.797Z,0
2017-04-20T00:39:43.773Z,0
2017-04-20T00:40:43.226Z,0
2017-04-20T00:41:43.895Z,0
2017-04-20T00:42:43.283Z,0
2017-04-20T00:43:43.937Z,0
2017-04-20T00:44:43.905Z,0
2017-04-20T00:45:43.366Z,0
2017-04-20T00:46:44.011Z,0
2017-04-20T00:47:43.720Z,0
2017-04-20T00:48:44.073Z,0
2017-04-20T00:49:43.710Z,0
2017-04-20T00:50:44.129Z,0
2017-04-20T00:51:43.834Z,0
2017-04-20T00:52:43.551Z,0
2017-04-20T00:53:43.871Z,0
2017-04-20T00:54:44.477Z,0
2017-04-20T00:55:43.625Z,0
2017-04-20T00:56:43.647Z,0
2017-04-20T00:57:43.981Z,0
2017-04-20T00:58:44.335Z,0
2017-04-20T00:59:44.608Z,0
2017-04-20T01:00:43.753Z,0
2017-04-20T01:01:44.102Z,0
2017-04-20T01:02:44.430Z,0
2017-04-20T01:03:44.143Z,0
2017-04-20T01:04:44.425Z,0
2017-04-20T01:05:44.206Z,0
2017-04-20T01:06:44.222Z,0
2017-04-20T01:07:44.251Z,0
2017-04-20T01:08:44.339Z,0
2017-04-20T01:09:44.872Z,0
2017-04-20T01:10:44.640Z,0
2017-04-20T01:11:44.354Z,0
2017-04-20T01:12:44.379Z,0
2017-04-20T01:13:44.718Z,0
2017-04-20T01:14:44.999Z,0
2017-04-20T01:15:44.773Z,0
2017-04-20T01:16:44.798Z,0
2017-04-20T01:17:44.825Z,0
2017-04-20T01:18:44.843Z,0
2017-04-20T01:19:45.130Z,0
2017-04-20T01:20:44.585Z,0
2017-04-20T01:21:44.313Z,0
2017-04-20T01:22:44.621Z,0
2017-04-20T01:23:44.984Z,0
2017-04-20T01:24:44.936Z,0
2017-04-20T01:25:45.032Z,0
2017-04-20T01:26:45.105Z,0
2017-04-20T01:27:45.186Z,0
2017-04-20T01:28:44.170Z,0
2017-04-20T01:29:45.078Z,0
2017-04-20T01:30:44.847Z,0
2017-04-20T01:31:44.559Z,0
2017-04-20T01:32:44.905Z,0
2017-04-20T01:33:44.923Z,0
2017-04-20T01:34:45.516Z,0
2017-04-20T01:35:44.984Z,0
2017-04-20T01:36:45.316Z,0
2017-04-20T01:37:45.025Z,0
2017-04-20T01:38:45.056Z,0
2017-04-20T01:39:45.674Z,0
2017-04-20T01:40:45.106Z,0
2017-04-20T01:41:45.143Z,0
2017-04-20T01:42:44.850Z,0
2017-04-20T01:43:44.881Z,0
2017-04-20T01:44:45.774Z,0
2017-04-20T01:45:45.244Z,0
2017-04-20T01:46:45.584Z,0
2017-04-20T01:47:45.321Z,0
2017-04-20T01:48:45.322Z,0
2017-04-20T01:49:45.590Z,0
2017-04-20T01:50:45.063Z,0
2017-04-20T01:51:45.944Z,0
2017-04-20T01:52:45.431Z,0
2017-04-20T01:53:45.988Z,0
2017-04-20T01:54:45.655Z,0
2017-04-20T01:55:46.503Z,0
2017-04-20T01:57:00.767Z,0
2017-04-20T01:58:00.684Z,0
2017-04-20T01:59:00.600Z,0
2017-04-20T01:59:46.390Z,0
2017-04-20T02:00:45.647Z,0
2017-04-20T02:01:46.163Z,0
2017-04-20T02:02:46.432Z,0
2017-04-20T02:03:46.173Z,0
2017-04-20T02:04:46.292Z,0
2017-04-20T02:05:46.085Z,0
2017-04-20T02:06:45.475Z,0
2017-04-20T02:07:45.834Z,0
2017-04-20T02:08:46.151Z,0
2017-04-20T02:09:46.433Z,0
2017-04-20T02:10:46.193Z,0
2017-04-20T02:11:45.922Z,0
2017-04-20T02:12:45.944Z,0
2017-04-20T02:13:45.972Z,0
2017-04-20T02:14:45.364Z,0
2017-04-20T02:15:46.267Z,0
2017-04-20T02:16:46.058Z,0
2017-04-20T02:17:46.328Z,0
2017-04-20T02:18:46.108Z,0
2017-04-20T02:19:46.120Z,0
2017-04-20T02:20:46.461Z,0
2017-04-20T02:21:46.511Z,0
2017-04-20T02:22:45.887Z,0
2017-04-20T02:23:46.552Z,0
2017-04-20T02:24:46.257Z,0
2017-04-20T02:25:46.848Z,0
2017-04-20T02:26:46.617Z,0
2017-04-20T02:27:46.018Z,0
2017-04-20T02:28:46.375Z,0
2017-04-20T02:29:46.384Z,0
2017-04-20T02:30:46.676Z,0
2017-04-20T02:31:46.748Z,0
2017-04-20T02:32:46.463Z,0
2017-04-20T02:33:46.802Z,0
2017-04-20T02:34:46.194Z,0
2017-04-20T02:35:46.788Z,0
2017-04-20T02:36:46.876Z,0
2017-04-20T02:37:46.898Z,0
2017-04-20T02:38:46.867Z,0
2017-04-20T02:39:46.636Z,0
2017-04-20T02:40:46.605Z,0
2017-04-20T02:41:46.681Z,0
2017-04-20T02:42:47.026Z,0
2017-04-20T02:43:46.746Z,0
2017-04-20T02:44:47.076Z,0
2017-04-20T02:45:46.732Z,0
2017-04-20T02:46:47.125Z,0
2017-04-20T02:47:46.850Z,0
2017-04-20T02:48:47.190Z,0
2017-04-20T02:49:46.592Z,0
2017-04-20T02:50:47.167Z,0
2017-04-20T02:51:47.289Z,0
2017-04-20T02:52:46.969Z,0
2017-04-20T02:53:46.682Z,0
2017-04-20T02:54:47.340Z,0
2017-04-20T02:55:47.756Z,0
2017-04-20T02:56:47.336Z,0
2017-04-20T02:57:46.785Z,0
2017-04-20T02:58:47.120Z,0
2017-04-20T02:59:47.158Z,0
2017-04-20T03:00:47.427Z,0
2017-04-20T03:01:47.512Z,0
2017-04-20T03:02:47.554Z,0
2017-04-20T03:03:46.634Z,0
2017-04-20T03:04:47.281Z,0
2017-04-20T03:05:47.879Z,0
2017-04-20T03:06:47.330Z,0
2017-04-20T03:07:47.036Z,0
2017-04-20T03:08:47.393Z,0
2017-04-20T03:09:47.419Z,0
2017-04-20T03:10:47.997Z,0
2017-04-20T03:11:47.472Z,0
2017-04-20T03:12:47.801Z,0
2017-04-20T03:13:47.990Z,0
2017-04-20T03:14:47.218Z,0
2017-04-20T03:15:47.818Z,0
2017-04-20T03:16:47.587Z,0
2017-04-20T03:17:47.932Z,0
2017-04-20T03:18:47.952Z,0
2017-04-20T03:19:47.974Z,0
2017-04-20T03:20:47.942Z,0
2017-04-20T03:21:47.511Z,0
2017-04-20T03:22:47.744Z,0
2017-04-20T03:23:47.769Z,0
2017-04-20T03:24:47.788Z,0
2017-04-20T03:25:48.386Z,0
2017-04-20T03:26:47.834Z,0
2017-04-20T03:27:48.184Z,0
2017-04-20T03:28:47.590Z,0
2017-04-20T03:29:47.925Z,0
2017-04-20T03:30:48.509Z,0
2017-04-20T03:31:47.978Z,0
2017-04-20T03:32:47.999Z,0
2017-04-20T03:33:48.029Z,0
2017-04-20T03:34:47.737Z,0
2017-04-20T03:35:48.324Z,0
2017-04-20T03:36:48.093Z,0
2017-04-20T03:37:48.443Z,0
2017-04-20T03:38:48.159Z,0
2017-04-20T03:39:48.668Z,0
2017-04-20T03:40:48.456Z,0
2017-04-20T03:41:48.225Z,0
2017-04-20T03:42:48.262Z,0
2017-04-20T03:43:47.968Z,0
2017-04-20T03:44:48.311Z,0
2017-04-20T03:45:48.582Z,0
2017-04-20T03:46:48.670Z,0
2017-04-20T03:47:48.386Z,0
2017-04-20T03:48:48.116Z,0
2017-04-20T03:49:48.756Z,0
2017-04-20T03:50:49.025Z,0
2017-04-20T03:51:48.801Z,0
2017-04-20T03:52:48.514Z,0
2017-04-20T03:53:48.226Z,0
2017-04-20T03:54:48.572Z,0
2017-04-20T03:55:48.600Z,0
2017-04-20T03:56:48.876Z,0
2017-04-20T03:57:48.329Z,0
2017-04-20T03:58:48.678Z,0
2017-04-20T03:59:48.683Z,0
2017-04-20T04:00:49.032Z,0
2017-04-20T04:01:48.993Z,0
2017-04-20T04:02:48.461Z,0
2017-04-20T04:03:49.131Z,0
2017-04-20T04:04:49.125Z,0
2017-04-20T04:05:48.219Z,0
2017-04-20T04:06:49.432Z,0
2017-04-20T04:07:48.271Z,0
2017-04-20T04:08:48.618Z,0
2017-04-20T04:09:48.950Z,0
2017-04-20T04:10:48.968Z,0
2017-04-20T04:11:49.247Z,0
2017-04-20T04:12:49.318Z,0
2017-04-20T04:13:49.380Z,0
2017-04-20T04:14:49.388Z,0
2017-04-20T04:15:49.403Z,0
2017-04-20T04:16:49.368Z,0
2017-04-20T04:17:49.486Z,0
2017-04-20T04:18:49.485Z,0
2017-04-20T04:19:49.195Z,0
2017-04-20T04:20:49.227Z,0
2017-04-20T04:21:48.876Z,0
2017-04-20T04:22:49.580Z,0
2017-04-20T04:23:49.321Z,0
2017-04-20T04:24:49.019Z,0
2017-04-20T04:25:49.037Z,0
2017-04-20T04:26:49.619Z,0
2017-04-20T04:27:49.400Z,0
2017-04-20T04:28:49.117Z,0
2017-04-20T04:29:49.906Z,0
2017-04-20T04:30:49.797Z,0
2017-04-20T04:31:49.452Z,0
2017-04-20T04:32:49.846Z,0
2017-04-20T04:33:49.870Z,0
2017-04-20T04:34:49.269Z,0
2017-04-20T04:35:49.617Z,0
2017-04-20T04:36:50.207Z,0
2017-04-20T04:37:49.975Z,0
2017-04-20T04:38:49.732Z,0
2017-04-20T04:39:49.593Z,0
2017-04-20T04:40:50.050Z,0
2017-04-20T04:41:50.022Z,0
2017-04-20T04:42:49.795Z,0
2017-04-20T04:43:49.811Z,0
2017-04-20T04:44:49.837Z,0
2017-04-20T04:45:50.181Z,0
2017-04-20T04:46:50.145Z,0
2017-04-20T04:47:50.071Z,0
2017-04-20T04:48:50.256Z,0
2017-04-20T04:49:50.273Z,0
2017-04-20T04:50:50.306Z,0
2017-04-20T04:51:50.259Z,0
2017-04-20T04:52:50.355Z,0
2017-04-20T04:53:49.751Z,0
2017-04-20T04:54:50.409Z,0
2017-04-20T04:55:50.129Z,0
2017-04-20T04:56:50.403Z,0
2017-04-20T04:57:50.482Z,0
2017-04-20T04:58:50.508Z,0
2017-04-20T04:59:50.532Z,0
2017-04-20T05:00:50.560Z,0
2017-04-20T05:01:50.219Z,0
2017-04-20T05:02:50.303Z,0
2017-04-20T05:03:50.012Z,0
2017-04-20T05:04:50.116Z,0
2017-04-20T05:05:50.062Z,0
2017-04-20T05:06:50.954Z,0
2017-04-20T05:07:50.739Z,0
2017-04-20T05:08:50.455Z,0
2017-04-20T05:09:50.793Z,0
2017-04-20T05:10:50.806Z,0
2017-04-20T05:11:51.097Z,0
2017-04-20T05:12:50.866Z,0
2017-04-20T05:13:50.971Z,0
2017-04-20T05:14:50.614Z,0
2017-04-20T05:15:50.933Z,5
2017-04-20T05:16:51.237Z,5
2017-04-20T05:17:50.989Z,5
2017-04-20T05:18:51.022Z,5
2017-04-20T05:19:50.740Z,5
2017-04-20T05:20:50.448Z,5
2017-04-20T05:21:51.048Z,5
2017-04-20T05:22:50.814Z,5
2017-04-20T05:23:50.528Z,5
2017-04-20T05:24:51.173Z,5
2017-04-20T05:25:50.892Z,5
2017-04-20T05:26:50.857Z,5
2017-04-20T05:27:50.937Z,5
2017-04-20T05:28:50.966Z,5
2017-04-20T05:29:50.991Z,5
2017-04-20T05:30:50.392Z,5
2017-04-20T05:31:51.312Z,5
2017-04-20T05:32:51.065Z,5
2017-04-20T05:33:51.096Z,5
2017-04-20T05:34:51.118Z,5
2017-04-20T05:35:51.143Z,5
2017-04-20T05:36:51.436Z,5
2017-04-20T05:37:51.510Z,5
2017-04-20T05:38:50.909Z,5
2017-04-20T05:39:51.584Z,5
2017-04-20T05:40:51.599Z,5
2017-04-20T05:41:51.555Z,5
2017-04-20T05:42:51.017Z,5
2017-04-20T05:43:51.661Z,5
2017-04-20T05:44:51.687Z,5
2017-04-20T05:45:51.399Z,5
2017-04-20T05:46:51.985Z,5
2017-04-20T05:47:51.780Z,5
2017-04-20T05:48:51.482Z,5
2017-04-20T05:49:51.512Z,5
2017-04-20T05:50:51.227Z,5
2017-04-20T05:51:51.860Z,5
2017-04-20T05:52:52.143Z,5
2017-04-20T05:53:51.290Z,5
2017-04-20T05:54:51.939Z,5
2017-04-20T05:55:51.966Z,5
2017-04-20T05:56:52.000Z,5
2017-04-20T05:57:51.961Z,5
2017-04-20T05:58:52.046Z,5
2017-04-20T05:59:52.073Z,5
2017-04-20T06:00:51.787Z,5
2017-04-20T06:01:51.815Z,5
2017-04-20T06:02:52.406Z,5
2017-04-20T06:03:52.177Z,5
2017-04-20T06:04:52.205Z,5
2017-04-20T06:05:51.914Z,10
2017-04-20T06:06:52.256Z,10
2017-04-20T06:07:52.540Z,10
2017-04-20T06:08:51.683Z,10
2017-04-20T06:09:52.021Z,10
2017-04-20T06:10:52.358Z,10
2017-04-20T06:11:52.379Z,10
2017-04-20T06:12:52.036Z,10
2017-04-20T06:13:52.128Z,10
2017-04-20T06:14:52.493Z,10
2017-04-20T06:15:52.178Z,10
2017-04-20T06:16:52.218Z,10
2017-04-20T06:17:52.788Z,10
2017-04-20T06:18:52.572Z,10
2017-04-20T06:19:52.590Z,10
2017-04-20T06:20:52.774Z,10
2017-04-20T06:21:52.642Z,10
2017-04-20T06:22:52.607Z,10
2017-04-20T06:23:52.396Z,10
2017-04-20T06:24:52.729Z,10
2017-04-20T06:25:52.158Z,10
2017-04-20T06:26:52.782Z,10
2017-04-20T06:27:52.739Z,10
2017-04-20T06:28:52.207Z,10
2017-04-20T06:29:52.385Z,10
2017-04-20T06:30:52.878Z,10
2017-04-20T06:31:52.593Z,10
2017-04-20T06:32:53.207Z,10
2017-04-20T06:33:52.645Z,10
2017-04-20T06:34:52.672Z,10
2017-04-20T06:35:52.725Z,10
2017-04-20T06:36:53.046Z,10
2017-04-20T06:37:53.310Z,10
2017-04-20T06:38:53.087Z,10
2017-04-20T06:39:52.492Z,10
2017-04-20T06:40:52.829Z,10
2017-04-20T06:41:52.857Z,10
2017-04-20T06:42:53.126Z,10
2017-04-20T06:43:53.214Z,10
2017-04-20T06:44:52.944Z,10
2017-04-20T06:45:53.337Z,10
2017-04-20T06:46:52.981Z,10
2017-04-20T06:47:53.266Z,10
2017-04-20T06:48:53.339Z,10
2017-04-20T06:49:53.061Z,10
2017-04-20T06:50:52.776Z,10
2017-04-20T06:51:53.117Z,10
2017-04-20T06:52:53.389Z,10
2017-04-20T06:53:52.860Z,10
2017-04-20T06:54:53.512Z,10
2017-04-20T06:55:53.537Z,10
2017-04-20T06:56:52.941Z,10
2017-04-20T06:57:53.842Z,10
2017-04-20T06:58:52.986Z,10
2017-04-20T06:59:52.696Z,10
2017-04-20T07:00:53.356Z,10
2017-04-20T07:01:53.374Z,10
2017-04-20T07:02:53.594Z,10
2017-04-20T07:03:53.748Z,10
2017-04-20T07:04:53.772Z,10
2017-04-20T07:05:53.788Z,10
2017-04-20T07:06:53.504Z,10
2017-04-20T07:07:54.101Z,10
2017-04-20T07:08:53.261Z,10
2017-04-20T07:09:53.593Z,10
2017-04-20T07:10:53.604Z,10
2017-04-20T07:11:53.636Z,10
2017-04-20T07:12:53.917Z,10
2017-04-20T07:13:53.386Z,10
2017-04-20T07:14:54.038Z,10
2017-04-20T07:15:53.746Z,10
2017-04-20T07:16:54.080Z,10
2017-04-20T07:17:54.369Z,10
2017-04-20T07:18:54.138Z,10
2017-04-20T07:19:53.843Z,10
2017-04-20T07:20:53.559Z,10
2017-04-20T07:21:53.899Z,10
2017-04-20T07:22:54.494Z,10
2017-04-20T07:23:54.261Z,10
2017-04-20T07:24:53.982Z,10
2017-04-20T07:25:53.701Z,10
2017-04-20T07:26:54.329Z,10
2017-04-20T07:27:54.673Z,10
2017-04-20T07:28:53.793Z,10
2017-04-20T07:29:54.110Z,10
2017-04-20T07:30:54.131Z,10
2017-04-20T07:31:54.142Z,10
2017-04-20T07:32:54.757Z,15
2017-04-20T07:33:54.526Z,15
2017-04-20T07:34:54.553Z,15
2017-04-20T07:35:54.710Z,15
2017-04-20T07:36:54.286Z,15
2017-04-20T07:37:54.251Z,15
2017-04-20T07:38:54.649Z,15
2017-04-20T07:39:54.373Z,15
2017-04-20T07:40:53.775Z,15
2017-04-20T07:41:54.421Z,15
2017-04-20T07:42:55.011Z,15
2017-04-20T07:43:54.783Z,15
2017-04-20T07:44:54.812Z,15
2017-04-20T07:45:54.837Z,15
2017-04-20T07:46:54.858Z,10
2017-04-20T07:47:54.884Z,15
2017-04-20T07:48:55.168Z,15
2017-04-20T07:49:54.316Z,15
2017-04-20T07:50:54.649Z,15
2017-04-20T07:51:54.527Z,15
2017-04-20T07:52:54.398Z,15
2017-04-20T07:53:54.671Z,15
2017-04-20T07:54:55.073Z,15
2017-04-20T07:55:55.092Z,15
2017-04-20T07:56:54.509Z,20
2017-04-20T07:57:55.138Z,25
2017-04-20T07:58:54.483Z,25
2017-04-20T07:59:55.204Z,25
2017-04-20T08:00:54.285Z,20
2017-04-20T08:01:54.953Z,25
2017-04-20T08:02:54.971Z,25
2017-04-20T08:03:55.542Z,25
2017-04-20T08:04:55.327Z,20
2017-04-20T08:05:55.352Z,20
2017-04-20T08:06:54.761Z,20
2017-04-20T08:07:55.418Z,20
2017-04-20T08:08:55.371Z,20
2017-04-20T08:09:55.175Z,20
2017-04-20T08:10:55.180Z,20
2017-04-20T08:11:55.197Z,20
2017-04-20T08:12:55.230Z,20
2017-04-20T08:13:55.184Z,15
2017-04-20T08:14:54.963Z,15
2017-04-20T08:15:55.624Z,20
2017-04-20T08:16:55.640Z,20
2017-04-20T08:17:55.677Z,20
2017-04-20T08:18:55.631Z,20
2017-04-20T08:19:55.731Z,15
2017-04-20T08:20:55.436Z,20
2017-04-20T08:21:55.777Z,20
2017-04-20T08:22:55.482Z,20
2017-04-20T08:23:56.071Z,20
2017-04-20T08:24:55.227Z,20
2017-04-20T08:25:55.876Z,15
2017-04-20T08:26:54.975Z,20
2017-04-20T08:27:55.618Z,20
2017-04-20T08:28:56.210Z,20
2017-04-20T08:29:55.358Z,20
2017-04-20T08:30:56.015Z,20
2017-04-20T08:31:56.033Z,20
2017-04-20T08:32:55.436Z,20
2017-04-20T08:33:56.027Z,20
2017-04-20T08:34:55.493Z,20
2017-04-20T08:35:55.833Z,20
2017-04-20T08:36:55.848Z,20
2017-04-20T08:37:55.867Z,20
2017-04-20T08:38:56.165Z,20
2017-04-20T08:39:55.953Z,20
2017-04-20T08:40:55.642Z,25
2017-04-20T08:41:55.683Z,25
2017-04-20T08:42:56.338Z,20
2017-04-20T08:43:56.597Z,25
2017-04-20T08:44:56.382Z,25
2017-04-20T08:45:56.095Z,25
2017-04-20T08:46:56.135Z,25
2017-04-20T08:47:56.452Z,20
2017-04-20T08:48:56.095Z,25
2017-04-20T08:49:56.505Z,25
2017-04-20T08:50:56.226Z,25
2017-04-20T08:51:56.247Z,25
2017-04-20T08:52:56.583Z,25
2017-04-20T08:53:56.871Z,25
2017-04-20T08:54:56.641Z,20
2017-04-20T08:55:56.351Z,25
2017-04-20T08:56:56.379Z,25
2017-04-20T08:57:56.404Z,25
2017-04-20T08:58:56.979Z,25
2017-04-20T08:59:56.537Z,25
2017-04-20T09:00:56.898Z,15
2017-04-20T09:01:56.502Z,15
2017-04-20T09:02:56.222Z,15
2017-04-20T09:03:56.811Z,15
2017-04-20T09:04:56.591Z,25
2017-04-20T09:05:56.617Z,25
2017-04-20T09:06:56.334Z,25
2017-04-20T09:07:56.667Z,25
2017-04-20T09:08:56.937Z,25
2017-04-20T09:09:57.018Z,25
2017-04-20T09:10:56.736Z,25
2017-04-20T09:11:56.786Z,25
2017-04-20T09:12:56.796Z,25
2017-04-20T09:13:56.755Z,20
2017-04-20T09:14:57.152Z,20
2017-04-20T09:15:57.185Z,20
2017-04-20T09:16:57.249Z,20
2017-04-20T09:17:57.231Z,25
2017-04-20T09:18:57.506Z,25
2017-04-20T09:19:56.658Z,25
2017-04-20T09:20:57.012Z,30
2017-04-20T09:21:57.350Z,30
2017-04-20T09:22:57.053Z,30
2017-04-20T09:23:57.334Z,30
2017-04-20T09:24:57.414Z,30
2017-04-20T09:25:57.539Z,30
2017-04-20T09:26:57.465Z,30
2017-04-20T09:27:57.493Z,30
2017-04-20T09:28:57.763Z,30
2017-04-20T09:29:57.238Z,25
2017-04-20T09:30:57.250Z,25
2017-04-20T09:31:57.286Z,25
2017-04-20T09:32:56.993Z,25
2017-04-20T09:33:58.058Z,25
2017-04-20T09:34:57.674Z,25
2017-04-20T09:35:56.763Z,25
2017-04-20T09:36:57.425Z,30
2017-04-20T09:37:57.439Z,30
2017-04-20T09:38:57.466Z,25
2017-04-20T09:39:57.742Z,25
2017-04-20T09:40:57.510Z,30
2017-04-20T09:41:57.547Z,30
2017-04-20T09:42:57.476Z,30
2017-04-20T09:43:57.914Z,25
2017-04-20T09:44:57.866Z,30
2017-04-20T09:45:57.349Z,30
2017-04-20T09:46:57.670Z,30
2017-04-20T09:47:57.706Z,30
2017-04-20T09:48:58.040Z,30
2017-04-20T09:49:57.689Z,30
2017-04-20T09:50:58.098Z,25
2017-04-20T09:51:58.124Z,30
2017-04-20T09:52:58.154Z,30
2017-04-20T09:53:58.176Z,30
2017-04-20T09:54:58.448Z,30
2017-04-20T09:55:58.218Z,30
2017-04-20T09:56:57.647Z,30
2017-04-20T09:57:58.268Z,30
2017-04-20T09:58:58.450Z,30
2017-04-20T09:59:58.276Z,30
2017-04-20T10:00:57.741Z,30
2017-04-20T10:01:58.070Z,30
2017-04-20T10:02:57.789Z,30
2017-04-20T10:03:58.429Z,30
2017-04-20T10:04:58.705Z,30
2017-04-20T10:05:58.180Z,30
2017-04-20T10:06:58.201Z,30
2017-04-20T10:07:57.915Z,30
2017-04-20T10:08:57.940Z,30
2017-04-20T10:09:58.223Z,30
2017-04-20T10:10:58.626Z,30
2017-04-20T10:11:58.654Z,30
2017-04-20T10:12:58.670Z,30
2017-04-20T10:13:58.699Z,30
2017-04-20T10:14:58.975Z,30
2017-04-20T10:15:58.282Z,35
2017-04-20T10:16:58.776Z,35
2017-04-20T10:17:58.497Z,35
2017-04-20T10:18:58.518Z,35
2017-04-20T10:19:58.812Z,35
2017-04-20T10:20:58.560Z,35
2017-04-20T10:21:58.917Z,35
2017-04-20T10:22:58.630Z,35
2017-04-20T10:23:58.698Z,35
2017-04-20T10:24:58.612Z,35
2017-04-20T10:25:59.016Z,40
2017-04-20T10:26:58.716Z,40
2017-04-20T10:27:58.750Z,40
2017-04-20T10:28:58.810Z,40
2017-04-20T10:29:59.051Z,40
2017-04-20T10:30:58.830Z,40
2017-04-20T10:31:58.852Z,40
2017-04-20T10:32:59.202Z,40
2017-04-20T10:33:58.917Z,40
2017-04-20T10:34:58.253Z,40
2017-04-20T10:35:59.270Z,35
2017-04-20T10:36:58.988Z,40
2017-04-20T10:37:58.705Z,45
2017-04-20T10:38:59.350Z,45
2017-04-20T10:39:58.809Z,45
2017-04-20T10:40:59.284Z,45
2017-04-20T10:41:59.118Z,45
2017-04-20T10:42:59.464Z,45
2017-04-20T10:43:59.177Z,45
2017-04-20T10:44:59.758Z,45
2017-04-20T10:45:59.534Z,45
2017-04-20T10:46:58.940Z,45
2017-04-20T10:47:58.651Z,45
2017-04-20T10:48:58.673Z,45
2017-04-20T10:49:59.889Z,45
2017-04-20T10:50:59.668Z,45
2017-04-20T10:51:59.383Z,45
2017-04-20T10:52:59.099Z,45
2017-04-20T10:53:58.812Z,45
2017-04-20T10:54:59.434Z,45
2017-04-20T10:55:59.498Z,50
2017-04-20T10:56:59.828Z,50
2017-04-20T10:57:59.111Z,50
2017-04-20T10:58:59.571Z,50
2017-04-20T11:00:00.182Z,50
2017-04-20T11:00:59.629Z,50
2017-04-20T11:01:59.965Z,50
2017-04-20T11:03:00.002Z,50
2017-04-20T11:03:59.709Z,45
2017-04-20T11:05:00.283Z,50
2017-04-20T11:05:59.757Z,55
2017-04-20T11:06:59.774Z,55
2017-04-20T11:07:59.510Z,60
2017-04-20T11:08:59.832Z,70
2017-04-20T11:10:00.124Z,75
2017-04-20T11:11:00.223Z,80
2017-04-20T11:11:59.923Z,80
2017-04-20T11:12:59.030Z,85
2017-04-20T11:14:00.286Z,95
2017-04-20T11:15:00.568Z,95
2017-04-20T11:15:59.417Z,95
2017-04-20T11:17:00.055Z,100
2017-04-20T11:18:00.078Z,95
2017-04-20T11:19:00.110Z,100
2017-04-20T11:20:00.388Z,100
2017-04-20T11:21:00.472Z,100
2017-04-20T11:22:00.197Z,100
2017-04-20T11:23:00.532Z,105
2017-04-20T11:23:59.927Z,105
2017-04-20T11:25:00.518Z,105
2017-04-20T11:26:00.304Z,105
2017-04-20T11:27:00.010Z,110
2017-04-20T11:28:00.667Z,110
2017-04-20T11:29:00.382Z,110
2017-04-20T11:30:00.351Z,115
2017-04-20T11:31:00.559Z,120
2017-04-20T11:32:00.165Z,130
2017-04-20T11:33:00.806Z,135
2017-04-20T11:34:00.813Z,140
2017-04-20T11:35:01.099Z,165
2017-04-20T11:36:00.563Z,195
2017-04-20T11:37:00.898Z,205
2017-04-20T11:38:00.616Z,215
2017-04-20T11:39:00.330Z,215
2017-04-20T11:40:01.204Z,220
2017-04-20T11:41:00.700Z,235
2017-04-20T11:42:00.725Z,240
2017-04-20T11:43:00.120Z,240
2017-04-20T11:44:01.090Z,240
2017-04-20T11:45:01.375Z,240
2017-04-20T11:46:00.842Z,235
2017-04-20T11:47:00.859Z,245
2017-04-20T11:48:00.992Z,245
2017-04-20T11:49:00.917Z,240
2017-04-20T11:50:01.207Z,240
2017-04-20T11:51:01.289Z,235
2017-04-20T11:52:01.004Z,230
2017-04-20T11:53:01.340Z,225
2017-04-20T11:54:00.737Z,230
2017-04-20T11:55:01.022Z,240
2017-04-20T11:56:01.109Z,235
2017-04-20T11:57:01.598Z,235
2017-04-20T11:58:01.175Z,240
2017-04-20T11:59:01.521Z,235
2017-04-20T12:00:01.789Z,235
2017-04-20T12:01:01.575Z,240
2017-04-20T12:02:00.978Z,240
2017-04-20T12:03:01.329Z,235
2017-04-20T12:04:01.672Z,240
2017-04-20T12:05:01.462Z,245
2017-04-20T12:06:01.405Z,260
2017-04-20T12:07:01.755Z,255
2017-04-20T12:08:01.788Z,235
2017-04-20T12:09:01.505Z,230
2017-04-20T12:10:02.084Z,245
2017-04-20T12:11:01.559Z,245
2017-04-20T12:12:01.601Z,250
2017-04-20T12:13:01.302Z,245
2017-04-20T12:14:02.195Z,235
2017-04-20T12:15:01.376Z,245
2017-04-20T12:16:02.285Z,250
2017-04-20T12:17:02.046Z,245
2017-04-20T12:18:02.086Z,250
2017-04-20T12:19:01.812Z,250
2017-04-20T12:20:01.832Z,240
2017-04-20T12:21:02.113Z,245
2017-04-20T12:22:01.677Z,250
2017-04-20T12:23:01.616Z,240
2017-04-20T12:24:01.951Z,250
2017-04-20T12:25:01.981Z,250
2017-04-20T12:26:01.957Z,240
2017-04-20T12:27:01.753Z,240
2017-04-20T12:28:01.766Z,245
2017-04-20T12:29:02.487Z,250
2017-04-20T12:30:02.135Z,230
2017-04-20T12:31:02.118Z,225
2017-04-20T12:32:02.202Z,225
2017-04-20T12:33:02.234Z,210
2017-04-20T12:34:02.266Z,210
2017-04-20T12:35:01.980Z,205
2017-04-20T12:36:02.900Z,210
2017-04-20T12:37:02.053Z,220
2017-04-20T12:38:02.745Z,220
2017-04-20T12:39:01.799Z,210
2017-04-20T12:40:02.766Z,215
2017-04-20T12:41:03.048Z,220
2017-04-20T12:42:02.833Z,210
2017-04-20T12:43:02.549Z,210
2017-04-20T12:44:02.254Z,195
2017-04-20T12:45:02.942Z,195
2017-04-20T12:46:02.896Z,200
2017-04-20T12:47:02.981Z,200
2017-04-20T12:48:03.026Z,205
2017-04-20T12:49:03.058Z,215
2017-04-20T12:50:03.092Z,210
2017-04-20T12:51:03.379Z,215
2017-04-20T12:52:03.140Z,230
2017-04-20T12:53:02.241Z,235
2017-04-20T12:54:02.677Z,230
2017-04-20T12:55:03.242Z,230
2017-04-20T12:56:03.223Z,225
2017-04-20T12:57:03.307Z,240
2017-04-20T12:58:02.728Z,250
2017-04-20T12:59:03.374Z,230
2017-04-20T13:00:02.797Z,210
2017-04-20T13:01:03.371Z,200
2017-04-20T13:02:03.160Z,205
2017-04-20T13:03:03.653Z,200
2017-04-20T13:04:03.546Z,200
2017-04-20T13:05:03.265Z,200
2017-04-20T13:06:03.861Z,185
2017-04-20T13:07:03.332Z,175
2017-04-20T13:08:03.351Z,170
2017-04-20T13:09:03.393Z,155
2017-04-20T13:10:03.734Z,155
2017-04-20T13:11:04.013Z,155
2017-04-20T13:12:03.803Z,155
2017-04-20T13:13:03.511Z,155
2017-04-20T13:14:03.864Z,150
2017-04-20T13:15:03.573Z,155
2017-04-20T13:16:04.178Z,155
2017-04-20T13:17:03.954Z,160
2017-04-20T13:18:03.676Z,150
2017-04-20T13:19:04.024Z,145
2017-04-20T13:20:03.756Z,155
2017-04-20T13:21:03.739Z,140
2017-04-20T13:22:03.505Z,135
2017-04-20T13:23:04.159Z,145
2017-04-20T13:24:03.860Z,155
2017-04-20T13:25:03.916Z,125
2017-04-20T13:26:04.496Z,145
2017-04-20T13:27:03.975Z,140
2017-04-20T13:28:04.097Z,145
2017-04-20T13:29:04.043Z,135
2017-04-20T13:30:03.748Z,145
2017-04-20T13:31:04.345Z,145
2017-04-20T13:32:04.457Z,140
2017-04-20T13:33:04.474Z,130
2017-04-20T13:34:04.508Z,130
2017-04-20T13:35:04.227Z,125
2017-04-20T13:36:04.876Z,130
2017-04-20T13:37:04.286Z,130
2017-04-20T13:38:04.020Z,130
2017-04-20T13:39:04.679Z,130
2017-04-20T13:40:04.712Z,135
2017-04-20T13:41:04.368Z,130
2017-04-20T13:42:04.453Z,125
2017-04-20T13:43:04.795Z,120
2017-04-20T13:44:04.514Z,120
2017-04-20T13:45:04.651Z,125
2017-04-20T13:46:04.835Z,125
2017-04-20T13:47:04.620Z,120
2017-04-20T13:48:04.337Z,125
2017-04-20T13:49:04.682Z,125
2017-04-20T13:50:05.022Z,120
2017-04-20T13:51:05.364Z,125
2017-04-20T13:52:04.772Z,125
2017-04-20T13:53:05.093Z,120
2017-04-20T13:54:04.838Z,120
2017-04-20T13:55:04.874Z,120
2017-04-20T13:56:05.175Z,120
2017-04-20T13:57:04.632Z,120
2017-04-20T13:58:04.980Z,115
2017-04-20T13:59:05.005Z,115
2017-04-20T14:00:05.035Z,110
2017-04-20T14:01:05.636Z,115
2017-04-20T14:02:04.471Z,110
2017-04-20T14:03:04.504Z,115
2017-04-20T14:04:05.482Z,120
2017-04-20T14:05:05.516Z,115
2017-04-20T14:06:05.790Z,110
2017-04-20T14:07:05.267Z,110
2017-04-20T14:08:05.599Z,115
2017-04-20T14:09:05.350Z,115
2017-04-20T14:10:05.750Z,115
2017-04-20T14:11:05.979Z,115
2017-04-20T14:12:05.749Z,115
2017-04-20T14:13:04.831Z,110
2017-04-20T14:14:05.796Z,110
2017-04-20T14:15:05.826Z,110
2017-04-20T14:16:05.486Z,105
2017-04-20T14:17:05.887Z,100
2017-04-20T14:18:06.325Z,105
2017-04-20T14:19:05.956Z,105
2017-04-20T14:20:05.984Z,100
2017-04-20T14:21:05.669Z,105
2017-04-20T14:22:06.055Z,105